createdAt,value
2022-11-01T00:01:12.260Z,347.05
2022-11-01T00:03:40.696Z,340.50
2022-11-01T00:06:09.148Z,366.77
2022-11-01T00:08:38.994Z,351.05
2022-11-01T00:11:08.946Z,340.63
2022-11-01T00:13:37.325Z,353.00
2022-11-01T00:16:06.190Z,350.35
2022-11-01T00:18:34.600Z,354.17
2022-11-01T00:21:03.063Z,351.58
2022-11-01T00:23:31.523Z,345.27
2022-11-01T00:26:02.575Z,335.20
2022-11-01T00:28:31.142Z,369.80
2022-11-01T00:31:00.099Z,397.10
2022-11-01T00:33:28.521Z,416.52
2022-11-01T00:36:01.639Z,445.15
2022-11-01T00:38:30.312Z,419.80
2022-11-01T00:40:59.042Z,404.50
2022-11-01T00:43:28.815Z,377.50
2022-11-01T00:45:57.135Z,412.83
2022-11-01T00:48:25.540Z,427.70
2022-11-01T00:50:54.488Z,428.42
2022-11-01T00:53:23.039Z,452.38
2022-11-01T00:55:51.485Z,419.80
2022-11-01T00:58:20.049Z,427.15
2022-11-01T01:00:50.628Z,422.63
2022-11-01T01:03:19.053Z,412.33
2022-11-01T01:05:49.001Z,439.95
2022-11-01T01:08:17.463Z,433.17
2022-11-01T01:10:45.965Z,443.27
2022-11-01T01:13:14.728Z,436.85
2022-11-01T01:15:43.389Z,370.48
2022-11-01T01:18:13.227Z,415.55
2022-11-01T01:20:41.575Z,417.80
2022-11-01T01:23:09.978Z,429.55
2022-11-01T01:25:41.072Z,421.90
2022-11-01T01:28:09.744Z,413.60
2022-11-01T01:30:41.680Z,396.38
2022-11-01T01:35:45.060Z,381.33
2022-11-01T01:38:13.467Z,413.83
2022-11-01T01:40:42.189Z,416.35
2022-11-01T01:43:12.502Z,417.63
2022-11-01T01:45:41.925Z,414.50
2022-11-01T01:48:17.452Z,400.80
2022-11-01T01:50:50.237Z,421.17
2022-11-01T01:53:23.566Z,367.92
2022-11-01T01:55:57.079Z,404.67
2022-11-01T01:58:30.289Z,361.27
2022-11-01T02:00:58.820Z,375.63
2022-11-01T02:03:30.009Z,376.25
2022-11-01T02:06:01.709Z,424.55
2022-11-01T02:08:30.295Z,437.52
2022-11-01T02:11:00.881Z,453.10
2022-11-01T02:13:30.168Z,426.42
2022-11-01T02:16:19.358Z,401.90
2022-11-01T02:18:49.473Z,418.33
2022-11-01T02:21:35.563Z,393.55
2022-11-01T02:24:16.441Z,441.98
2022-11-01T02:27:11.090Z,443.65
2022-11-01T02:30:01.500Z,424.40
2022-11-01T02:32:39.448Z,381.58
2022-11-01T02:35:13.700Z,420.85
2022-11-01T02:37:46.194Z,373.45
2022-11-01T02:40:18.181Z,397.20
2022-11-01T02:42:49.548Z,433.23
2022-11-01T02:45:29.025Z,414.63
2022-11-01T02:48:00.518Z,412.92
2022-11-01T02:50:31.207Z,410.05
2022-11-01T02:53:00.303Z,433.90
2022-11-01T02:55:30.746Z,436.98
2022-11-01T02:58:01.891Z,448.60
2022-11-01T03:00:32.955Z,403.92
2022-11-01T03:03:12.083Z,426.27
2022-11-01T03:05:54.573Z,438.85
2022-11-01T03:08:24.999Z,406.20
2022-11-01T03:10:58.358Z,382.55
2022-11-01T03:13:35.750Z,374.80
2022-11-01T03:16:12.919Z,407.58
2022-11-01T03:18:51.196Z,372.65
2022-11-01T03:21:25.222Z,361.25
2022-11-01T03:23:57.938Z,318.00
2022-11-01T03:26:28.354Z,344.70
2022-11-01T03:28:59.410Z,339.17
2022-11-01T03:31:31.468Z,341.05
2022-11-01T03:34:03.931Z,346.05
2022-11-01T03:36:35.167Z,322.77
2022-11-01T03:39:08.038Z,333.15
2022-11-01T03:41:40.112Z,365.15
2022-11-01T03:44:08.770Z,376.13
2022-11-01T03:46:37.387Z,351.30
2022-11-01T03:49:07.154Z,325.10
2022-11-01T03:51:35.427Z,352.35
2022-11-01T03:54:06.388Z,351.08
2022-11-01T03:56:34.811Z,361.60
2022-11-01T03:59:03.270Z,365.67
2022-11-01T04:01:31.797Z,354.08
2022-11-01T04:04:00.272Z,362.38
2022-11-01T04:06:30.308Z,372.77
2022-11-01T04:08:58.718Z,347.33
2022-11-01T04:11:27.150Z,364.75
2022-11-01T04:14:16.322Z,383.80
2022-11-01T04:17:01.975Z,344.25
2022-11-01T04:19:48.058Z,335.60
2022-11-01T04:22:20.612Z,362.02
2022-11-01T04:24:52.073Z,334.88
2022-11-01T04:27:20.581Z,355.75
2022-11-01T04:29:49.004Z,355.42
2022-11-01T04:32:17.487Z,347.90
2022-11-01T04:34:46.006Z,380.38
2022-11-01T04:37:14.596Z,365.00
2022-11-01T04:39:44.416Z,371.25
2022-11-01T04:42:12.715Z,412.80
2022-11-01T04:44:41.024Z,390.77
2022-11-01T04:47:09.381Z,432.48
2022-11-01T04:49:37.732Z,401.20
2022-11-01T04:52:06.292Z,430.38
2022-11-01T04:54:34.730Z,430.30
2022-11-01T04:57:04.467Z,453.48
2022-11-01T04:59:32.817Z,422.00
2022-11-01T05:02:01.324Z,386.13
2022-11-01T05:04:32.887Z,430.23
2022-11-01T05:07:01.459Z,412.65
2022-11-01T05:09:31.183Z,441.05
2022-11-01T05:11:59.778Z,459.60
2022-11-01T05:14:29.547Z,465.65
2022-11-01T05:16:58.562Z,426.83
2022-11-01T05:19:26.928Z,395.88
2022-11-01T05:21:58.314Z,424.58
2022-11-01T05:24:30.022Z,494.38
2022-11-01T05:26:59.817Z,435.33
2022-11-01T05:29:33.403Z,441.38
2022-11-01T05:32:02.162Z,448.40
2022-11-01T05:34:30.625Z,429.85
2022-11-01T05:36:58.975Z,447.73
2022-11-01T05:39:27.937Z,421.42
2022-11-01T05:42:02.645Z,404.77
2022-11-01T05:44:33.269Z,413.88
2022-11-01T05:47:04.739Z,383.60
2022-11-01T05:49:33.367Z,435.40
2022-11-01T05:52:01.887Z,412.45
2022-11-01T05:54:30.416Z,404.30
2022-11-01T05:56:58.930Z,408.48
2022-11-01T05:59:27.374Z,432.00
2022-11-01T06:01:57.594Z,369.77
2022-11-01T06:04:26.421Z,373.13
2022-11-01T06:06:54.916Z,345.70
2022-11-01T06:10:12.920Z,380.98
2022-11-01T06:12:41.701Z,382.15
2022-11-01T06:15:10.823Z,336.17
2022-11-01T06:17:40.822Z,357.98
2022-11-01T06:20:10.180Z,355.40
2022-11-01T06:22:44.479Z,320.73
2022-11-01T06:25:13.257Z,328.67
2022-11-01T06:27:41.737Z,300.75
2022-11-01T06:30:11.829Z,296.20
2022-11-01T06:32:41.669Z,293.55
2022-11-01T06:35:13.322Z,303.95
2022-11-01T06:37:41.983Z,325.30
2022-11-01T06:40:14.912Z,317.95
2022-11-01T06:42:46.500Z,290.75
2022-11-01T06:45:16.030Z,289.27
2022-11-01T06:47:49.710Z,322.75
2022-11-01T06:50:18.325Z,309.17
2022-11-01T06:52:46.791Z,284.90
2022-11-01T06:55:16.019Z,321.33
2022-11-01T06:57:44.530Z,333.20
2022-11-01T07:00:13.973Z,318.00
2022-11-01T07:02:42.693Z,331.25
2022-11-01T07:05:12.605Z,293.67
2022-11-01T07:07:48.344Z,307.95
2022-11-01T07:10:16.964Z,320.95
2022-11-01T07:12:46.526Z,332.48
2022-11-01T07:15:22.406Z,330.40
2022-11-01T07:17:53.136Z,334.92
2022-11-01T07:20:23.514Z,348.60
2022-11-01T07:23:01.410Z,328.40
2022-11-01T07:26:08.613Z,364.50
2022-11-01T07:29:07.774Z,363.52
2022-11-01T07:31:38.954Z,371.73
2022-11-01T07:34:07.553Z,347.42
2022-11-01T07:36:37.498Z,334.23
2022-11-01T07:39:14.432Z,366.40
2022-11-01T07:41:52.455Z,329.52
2022-11-01T07:44:23.803Z,357.23
2022-11-01T07:46:52.248Z,390.15
2022-11-01T07:49:20.982Z,373.63
2022-11-01T07:52:02.680Z,420.75
2022-11-01T07:54:31.920Z,405.95
2022-11-01T07:57:15.832Z,371.42
2022-11-01T07:59:47.581Z,374.70
2022-11-01T08:02:16.153Z,355.02
2022-11-01T08:04:44.638Z,347.02
2022-11-01T08:07:14.536Z,334.17
2022-11-01T08:09:44.441Z,333.98
2022-11-01T08:12:15.540Z,309.55
2022-11-01T08:14:44.698Z,316.83
2022-11-01T08:17:13.892Z,328.75
2022-11-01T08:19:46.039Z,349.00
2022-11-01T08:22:22.207Z,337.85
2022-11-01T08:24:57.093Z,334.95
2022-11-01T08:27:30.290Z,343.17
2022-11-01T08:30:00.813Z,398.38
2022-11-01T08:32:30.368Z,410.27
2022-11-01T08:35:01.073Z,416.10
2022-11-01T08:37:32.050Z,433.73
2022-11-01T08:40:00.878Z,462.40
2022-11-01T08:42:29.581Z,461.63
2022-11-01T08:45:01.512Z,476.45
2022-11-01T08:47:30.646Z,482.92
2022-11-01T08:49:59.923Z,527.08
2022-11-01T08:52:32.137Z,481.35
2022-11-01T08:55:01.110Z,526.03
2022-11-01T08:57:47.258Z,504.80
2022-11-01T09:00:33.798Z,457.65
2022-11-01T09:03:02.447Z,516.22
2022-11-01T09:05:34.440Z,524.03
2022-11-01T09:08:04.776Z,510.00
2022-11-01T09:10:34.293Z,507.98
2022-11-01T09:13:03.829Z,484.02
2022-11-01T09:15:32.890Z,517.45
2022-11-01T09:18:05.641Z,520.42
2022-11-01T09:20:42.678Z,507.17
2022-11-01T09:23:13.935Z,488.33
2022-11-01T09:25:47.861Z,495.00
2022-11-01T09:28:20.485Z,490.60
2022-11-01T09:31:01.366Z,530.08
2022-11-01T09:34:27.626Z,518.20
2022-11-01T09:37:03.637Z,498.17
2022-11-01T09:39:33.552Z,466.27
2022-11-01T09:42:11.058Z,397.02
2022-11-01T09:44:42.755Z,452.65
2022-11-01T09:47:30.445Z,366.95
2022-11-01T09:50:08.725Z,361.98
2022-11-01T09:52:42.735Z,363.85
2022-11-01T09:55:18.421Z,380.85
2022-11-01T09:57:51.568Z,372.20
2022-11-01T10:00:26.910Z,381.42
2022-11-01T10:03:35.316Z,373.05
2022-11-01T10:06:13.766Z,378.33
2022-11-01T10:09:10.030Z,376.45
2022-11-01T10:12:08.591Z,392.33
2022-11-01T10:14:45.878Z,432.50
2022-11-01T10:17:15.634Z,426.50
2022-11-01T10:19:46.630Z,432.40
2022-11-01T10:22:18.393Z,423.90
2022-11-01T10:24:51.181Z,428.13
2022-11-01T10:27:26.889Z,439.85
2022-11-01T10:30:00.397Z,470.38
2022-11-01T10:32:34.847Z,470.08
2022-11-01T10:35:07.487Z,487.45
2022-11-01T10:37:47.510Z,468.02
2022-11-01T10:40:28.786Z,475.60
2022-11-01T10:42:59.143Z,451.20
2022-11-01T10:45:27.710Z,479.50
2022-11-01T10:47:59.101Z,481.98
2022-11-01T10:50:28.991Z,460.15
2022-11-01T10:53:01.448Z,473.13
2022-11-01T10:55:34.330Z,470.95
2022-11-01T10:58:07.503Z,460.65
2022-11-01T11:00:39.187Z,445.50
2022-11-01T11:03:18.649Z,458.33
2022-11-01T11:05:48.407Z,469.65
2022-11-01T11:08:19.935Z,432.70
2022-11-01T11:10:49.327Z,441.27
2022-11-01T11:13:23.195Z,454.17
2022-11-01T11:15:53.832Z,451.42
2022-11-01T11:18:27.152Z,452.63
2022-11-01T11:21:00.230Z,460.95
2022-11-01T11:23:32.999Z,440.00
2022-11-01T11:26:05.909Z,443.42
2022-11-01T11:28:42.430Z,439.05
2022-11-01T11:31:15.018Z,456.10
2022-11-01T11:33:51.423Z,430.83
2022-11-01T11:36:30.033Z,447.10
2022-11-01T11:38:58.685Z,473.60
2022-11-01T11:41:29.758Z,474.52
2022-11-01T11:44:00.129Z,463.42
2022-11-01T11:46:28.768Z,439.90
2022-11-01T11:49:00.610Z,468.30
2022-11-01T11:51:30.153Z,461.90
2022-11-01T11:54:22.743Z,441.17
2022-11-01T11:56:54.235Z,456.80
2022-11-01T11:59:29.477Z,451.98
2022-11-01T12:02:03.538Z,473.75
2022-11-01T12:04:36.660Z,432.95
2022-11-01T12:07:07.700Z,464.08
2022-11-01T12:09:43.850Z,454.00
2022-11-01T12:12:19.272Z,417.35
2022-11-01T12:14:49.279Z,445.55
2022-11-01T12:17:36.721Z,442.58
2022-11-01T12:20:16.041Z,440.60
2022-11-01T12:22:49.177Z,439.00
2022-11-01T12:25:24.468Z,430.70
2022-11-01T12:28:02.554Z,452.17
2022-11-01T12:30:35.489Z,399.15
2022-11-01T12:33:08.332Z,433.35
2022-11-01T12:35:42.948Z,428.58
2022-11-01T12:38:39.043Z,459.05
2022-11-01T12:41:25.923Z,450.38
2022-11-01T12:44:01.448Z,463.00
2022-11-01T12:46:37.156Z,455.70
2022-11-01T12:49:13.470Z,457.42
2022-11-01T12:51:45.496Z,466.55
2022-11-01T12:54:16.193Z,399.85
2022-11-01T12:56:44.767Z,398.23
2022-11-01T12:59:14.929Z,452.58
2022-11-01T13:01:53.507Z,417.30
2022-11-01T13:04:31.171Z,399.08
2022-11-01T13:07:09.145Z,426.38
2022-11-01T13:09:47.361Z,441.67
2022-11-01T13:12:20.933Z,460.63
2022-11-01T13:14:58.273Z,430.33
2022-11-01T13:17:35.503Z,467.58
2022-11-01T13:20:11.136Z,438.08
2022-11-01T13:22:43.971Z,481.88
2022-11-01T13:25:20.131Z,471.75
2022-11-01T13:27:53.223Z,474.85
2022-11-01T13:30:22.129Z,484.70
2022-11-01T13:32:59.117Z,465.48
2022-11-01T13:35:38.424Z,474.35
2022-11-01T13:38:17.510Z,452.05
2022-11-01T13:40:52.040Z,455.60
2022-11-01T13:43:24.675Z,476.00
2022-11-01T13:46:23.861Z,482.05
2022-11-01T13:49:26.542Z,463.15
2022-11-01T13:52:00.261Z,470.65
2022-11-01T13:54:32.282Z,414.27
2022-11-01T13:57:03.214Z,457.52
2022-11-01T13:59:33.819Z,423.10
2022-11-01T14:02:36.198Z,452.10
2022-11-01T14:05:08.630Z,437.35
2022-11-01T14:07:39.563Z,437.58
2022-11-01T14:10:11.931Z,440.75
2022-11-01T14:12:44.962Z,422.27
2022-11-01T14:15:24.111Z,392.92
2022-11-01T14:18:04.514Z,377.05
2022-11-01T14:20:48.045Z,376.02
2022-11-01T14:23:52.512Z,357.92
2022-11-01T14:26:37.030Z,334.50
2022-11-01T14:29:09.717Z,370.17
2022-11-01T14:31:38.099Z,384.48
2022-11-01T14:34:09.389Z,385.13
2022-11-01T14:36:42.844Z,363.88
2022-11-01T14:39:17.242Z,342.03
2022-11-01T14:44:18.629Z,365.85
2022-11-01T14:46:49.949Z,371.85
2022-11-01T14:49:26.627Z,363.58
2022-11-01T14:52:00.261Z,388.95
2022-11-01T14:54:34.885Z,356.73
2022-11-01T14:57:04.043Z,389.40
2022-11-01T14:59:33.652Z,387.67
2022-11-01T15:02:05.363Z,393.05
2022-11-01T15:04:39.830Z,390.25
2022-11-01T15:09:57.473Z,364.73
2022-11-01T15:12:27.713Z,417.88
2022-11-01T15:14:56.916Z,411.73
2022-11-01T15:17:26.929Z,427.88
2022-11-01T15:19:55.696Z,414.77
2022-11-01T15:22:27.854Z,413.13
2022-11-01T15:25:00.113Z,419.85
2022-11-01T15:27:33.437Z,407.98
2022-11-01T15:30:02.045Z,419.42
2022-11-01T15:32:32.660Z,410.45
2022-11-01T15:35:05.768Z,421.42
2022-11-01T15:37:36.037Z,379.92
2022-11-01T15:40:30.385Z,407.92
2022-11-01T15:43:02.124Z,372.00
2022-11-01T15:45:32.589Z,407.05
2022-11-01T15:48:03.031Z,398.05
2022-11-01T15:50:35.909Z,395.77
2022-11-01T15:53:13.859Z,418.58
2022-11-01T15:55:47.410Z,393.70
2022-11-01T15:58:20.602Z,448.00
2022-11-01T16:00:51.079Z,379.88
2022-11-01T16:03:26.447Z,388.88
2022-11-01T16:06:12.273Z,346.38
2022-11-01T16:09:19.403Z,387.95
2022-11-01T16:12:32.529Z,405.17
2022-11-01T16:15:42.945Z,395.63
2022-11-01T16:19:02.431Z,401.38
2022-11-01T16:21:36.930Z,431.40
2022-11-01T16:26:57.282Z,366.00
2022-11-01T16:29:51.200Z,348.25
2022-11-01T16:32:27.811Z,301.42
2022-11-01T16:35:03.848Z,292.85
2022-11-01T16:37:42.574Z,288.23
2022-11-01T16:40:46.096Z,275.35
2022-11-01T16:43:25.800Z,348.25
2022-11-01T16:46:17.548Z,317.50
2022-11-01T16:48:55.011Z,313.60
2022-11-01T16:51:27.097Z,318.58
2022-11-01T16:53:56.595Z,329.25
2022-11-01T16:56:36.927Z,319.75
2022-11-01T16:59:08.864Z,340.42
2022-11-01T17:01:38.054Z,352.65
2022-11-01T17:04:06.832Z,348.10
2022-11-01T17:06:38.974Z,360.15
2022-11-01T17:09:12.891Z,329.55
2022-11-01T17:11:47.853Z,337.25
2022-11-01T17:14:19.361Z,341.17
2022-11-01T17:16:48.254Z,320.80
2022-11-01T17:19:21.773Z,331.02
2022-11-01T17:21:52.305Z,343.67
2022-11-01T17:24:23.002Z,345.80
2022-11-01T17:26:53.358Z,372.77
2022-11-01T17:29:21.865Z,402.08
2022-11-01T17:31:50.335Z,399.45
2022-11-01T17:34:19.085Z,413.95
2022-11-01T17:36:49.708Z,414.40
2022-11-01T17:39:19.823Z,280.30
2022-11-01T17:41:48.203Z,371.52
2022-11-01T17:44:17.993Z,359.35
2022-11-01T17:46:46.440Z,319.42
2022-11-01T17:49:16.339Z,320.90
2022-11-01T17:51:46.293Z,306.98
2022-11-01T17:54:16.062Z,353.70
2022-11-01T17:56:44.513Z,283.45
2022-11-01T17:59:13.042Z,338.45
2022-11-01T18:01:44.002Z,371.63
2022-11-01T18:04:12.659Z,279.52
2022-11-01T18:06:41.355Z,326.90
2022-11-01T18:09:18.065Z,393.25
2022-11-01T18:11:49.453Z,256.73
2022-11-01T18:14:21.218Z,258.67
2022-11-01T18:16:53.576Z,283.15
2022-11-01T18:19:39.365Z,293.60
2022-11-01T18:22:14.302Z,333.23
2022-11-01T18:24:46.187Z,331.08
2022-11-01T18:27:24.069Z,389.48
2022-11-01T18:29:52.478Z,314.92
2022-11-01T18:32:27.343Z,338.48
2022-11-01T18:34:59.910Z,315.30
2022-11-01T18:37:31.224Z,410.73
2022-11-01T18:40:05.163Z,305.55
2022-11-01T18:42:33.534Z,305.95
2022-11-01T18:45:15.833Z,327.13
2022-11-01T18:47:48.075Z,275.73
2022-11-01T18:50:23.527Z,341.50
2022-11-01T18:52:59.123Z,377.17
2022-11-01T18:55:27.623Z,235.20
2022-11-01T18:57:56.318Z,351.90
2022-11-01T19:00:24.677Z,380.85
2022-11-01T19:02:59.505Z,321.77
2022-11-01T19:05:28.562Z,383.38
2022-11-01T19:08:16.319Z,354.38
2022-11-01T19:10:45.355Z,366.88
2022-11-01T19:13:17.544Z,360.60
2022-11-01T19:15:49.092Z,333.60
2022-11-01T19:18:24.401Z,357.90
2022-11-01T19:20:54.310Z,350.00
2022-11-01T19:23:25.900Z,373.50
2022-11-01T19:25:54.521Z,355.85
2022-11-01T19:28:27.991Z,328.42
2022-11-01T19:30:58.797Z,236.85
2022-11-01T19:33:33.737Z,258.00
2022-11-01T19:36:05.831Z,238.30
2022-11-01T19:38:34.319Z,257.50
2022-11-01T19:41:02.691Z,224.73
2022-11-01T19:43:31.517Z,277.67
2022-11-01T19:46:00.075Z,247.13
2022-11-01T19:48:31.637Z,268.73
2022-11-01T19:51:00.728Z,239.25
2022-11-01T19:53:31.183Z,258.00
2022-11-01T19:56:03.823Z,234.30
2022-11-01T19:58:42.224Z,405.00
2022-11-01T20:01:40.713Z,353.40
2022-11-01T20:04:27.382Z,390.88
2022-11-01T20:07:00.991Z,250.55
2022-11-01T20:09:31.584Z,274.85
2022-11-01T20:12:00.025Z,249.75
2022-11-01T20:14:28.588Z,218.70
2022-11-01T20:16:56.983Z,289.52
2022-11-01T20:19:26.804Z,256.80
2022-11-01T20:21:55.267Z,236.13
2022-11-01T20:24:23.661Z,293.10
2022-11-01T20:26:52.150Z,291.80
2022-11-01T20:29:20.543Z,234.15
2022-11-01T20:31:49.814Z,244.02
2022-11-01T20:34:18.309Z,262.30
2022-11-01T20:37:08.159Z,239.15
2022-11-01T20:39:36.570Z,277.55
2022-11-01T20:42:05.024Z,272.90
2022-11-01T20:44:33.448Z,300.60
2022-11-01T20:47:01.798Z,307.83
2022-11-01T20:49:30.154Z,327.60
2022-11-01T20:52:13.361Z,291.20
2022-11-01T20:54:48.232Z,285.75
2022-11-01T20:57:27.522Z,268.55
2022-11-01T20:59:56.721Z,246.68
2022-11-01T21:02:25.399Z,272.23
2022-11-01T21:04:58.670Z,294.95
2022-11-01T21:07:30.796Z,277.02
2022-11-01T21:09:59.201Z,265.92
2022-11-01T21:12:40.366Z,254.98
2022-11-01T21:15:35.287Z,261.38
2022-11-01T21:18:37.652Z,245.88
2022-11-01T21:21:34.620Z,259.90
2022-11-01T21:24:29.608Z,282.02
2022-11-01T21:27:18.575Z,258.50
2022-11-01T21:29:48.975Z,259.88
2022-11-01T21:32:29.751Z,239.50
2022-11-01T21:34:58.862Z,262.23
2022-11-01T21:37:30.006Z,261.95
2022-11-01T21:40:06.724Z,238.60
2022-11-01T21:42:38.241Z,243.70
2022-11-01T21:45:29.571Z,241.70
2022-11-01T21:48:00.853Z,260.08
2022-11-01T21:50:29.351Z,260.77
2022-11-01T21:52:57.785Z,278.02
2022-11-01T21:55:27.648Z,241.35
2022-11-01T21:57:56.123Z,274.20
2022-11-01T22:00:24.491Z,254.43
2022-11-01T22:02:52.809Z,246.50
2022-11-01T22:05:21.225Z,249.93
2022-11-01T22:07:49.703Z,253.70
2022-11-01T22:10:18.240Z,228.85
2022-11-01T22:12:48.034Z,258.63
2022-11-01T22:15:16.567Z,240.63
2022-11-01T22:17:45.005Z,239.23
2022-11-01T22:20:13.539Z,248.30
2022-11-01T22:22:42.086Z,247.18
2022-11-01T22:25:11.142Z,260.33
2022-11-01T22:27:39.643Z,247.05
2022-11-01T22:30:11.072Z,265.88
2022-11-01T22:32:39.454Z,240.25
2022-11-01T22:35:08.458Z,267.08
2022-11-01T22:37:37.247Z,232.35
2022-11-01T22:40:12.300Z,269.92
2022-11-01T22:42:41.138Z,240.30
2022-11-01T22:45:17.827Z,237.52
2022-11-01T22:47:46.836Z,234.80
2022-11-01T22:50:22.871Z,244.65
2022-11-01T22:52:51.318Z,242.20
2022-11-01T22:55:23.898Z,239.25
2022-11-01T22:57:55.390Z,244.15
2022-11-01T23:00:30.111Z,245.63
2022-11-01T23:03:02.780Z,253.80
2022-11-01T23:05:31.455Z,232.45
2022-11-01T23:08:01.354Z,216.82
2022-11-01T23:10:31.343Z,271.90
2022-11-01T23:13:20.081Z,234.15
2022-11-01T23:15:49.839Z,219.70
2022-11-01T23:18:21.199Z,234.57
2022-11-01T23:20:54.556Z,241.30
2022-11-01T23:23:23.070Z,218.25
2022-11-01T23:25:52.107Z,232.18
2022-11-01T23:28:20.822Z,222.18
2022-11-01T23:30:51.765Z,226.35
2022-11-01T23:33:22.098Z,211.55
2022-11-01T23:35:53.157Z,226.57
2022-11-01T23:38:24.075Z,238.95
2022-11-01T23:40:55.410Z,240.73
2022-11-01T23:43:25.509Z,241.95
2022-11-01T23:45:55.541Z,210.75
2022-11-01T23:48:24.399Z,251.25
2022-11-01T23:50:53.749Z,223.32
2022-11-01T23:53:26.688Z,316.17
2022-11-01T23:55:56.289Z,260.48
